Time;durP1;ratioP1;P1;durP2;ratioP2;P2;SDS_P1;SDS_P2;PMS_P1;PMS_P2;Temp;Humidity;BMP_temperature;BMP_pressure;BME280_temperature;BME280_humidity;BME280_pressure;Samples;Min_cycle;Max_cycle;Signal;HPM_P1;HPM_P2
2022/12/29 00:02:13;;;;;;;18.58;8.05;;;;;;;5.55;55.56;99243.16;4333682;33;20517;-85
2022/12/29 00:04:38;;;;;;;19.80;8.77;;;;;;;5.69;55.26;99248.84;4320682;33;20126;-84
2022/12/29 00:07:04;;;;;;;24.85;10.07;;;;;;;5.67;55.24;99260.28;4333839;33;20108;-85
2022/12/29 00:09:30;;;;;;;21.73;9.20;;;;;;;4.70;57.26;99267.91;4320770;33;20176;-84
2022/12/29 00:11:56;;;;;;;20.30;9.70;;;;;;;5.30;55.70;99266.47;4333655;33;20092;-84
2022/12/29 00:17:06;;;;;;;23.33;10.93;;;;;;;5.30;55.80;99262.09;4332105;33;20109;-84
2022/12/29 00:36:02;;;;;;;21.20;9.68;;;;;;;5.14;56.31;99247.72;4321715;33;20114;-83
2022/12/29 00:44:06;;;;;;;23.30;9.73;;;;;;;4.46;58.33;99256.25;4311746;33;20158;-84
2022/12/29 00:46:38;;;;;;;23.27;10.65;;;;;;;4.91;57.07;99254.34;4333087;33;20103;-84
2022/12/29 00:51:48;;;;;;;21.75;9.77;;;;;;;5.00;56.88;99252.41;4321428;33;20127;-84
2022/12/29 00:54:14;;;;;;;22.62;10.23;;;;;;;5.00;56.79;99249.78;4334304;33;20441;-83
2022/12/29 00:56:39;;;;;;;22.52;10.00;;;;;;;4.77;57.27;99252.94;4322080;33;20134;-83
2022/12/29 00:59:07;;;;;;;20.98;10.30;;;;;;;4.96;56.81;99250.75;4321781;33;20135;-84
2022/12/29 01:01:34;;;;;;;22.55;9.60;;;;;;;5.05;56.68;99248.78;4334095;33;20100;-84
2022/12/29 01:03:59;;;;;;;19.37;9.38;;;;;;;5.04;56.69;99246.22;4334905;33;20119;-84
2022/12/29 01:06:25;;;;;;;17.62;9.20;;;;;;;5.12;56.43;99249.50;4334329;33;20147;-84
2022/12/29 01:10:09;;;;;;;20.35;9.48;;;;;;;5.17;56.35;99233.72;4334158;33;20127;-84
2022/12/29 01:11:37;;;;;;;23.35;9.20;;;;;;;5.19;56.24;99245.81;4324243;33;20211;-84
2022/12/29 01:14:03;;;;;;;21.65;8.50;;;;;;;5.23;56.13;99239.63;4321562;33;20155;-84
2022/12/29 01:16:28;;;;;;;18.60;8.45;;;;;;;5.25;56.10;99239.59;4321498;33;20108;-84
2022/12/29 01:18:53;;;;;;;20.10;7.50;;;;;;;5.25;56.15;99245.69;4321392;33;20147;-85
2022/12/29 01:21:19;;;;;;;17.55;8.40;;;;;;;5.27;56.14;99245.63;4321702;33;20512;-85
2022/12/29 01:23:44;;;;;;;16.27;8.13;;;;;;;5.29;56.09;99246.44;4334658;33;20491;-84
2022/12/29 01:26:15;;;;;;;19.05;8.30;;;;;;;5.27;56.12;99246.50;4321466;33;20443;-84
2022/12/29 01:28:41;;;;;;;19.77;8.13;;;;;;;5.31;56.01;99242.91;4321218;33;20099;-83
2022/12/29 01:31:10;;;;;;;19.00;7.87;;;;;;;5.25;56.15;99240.47;4335205;33;20118;-84
2022/12/29 01:33:36;;;;;;;19.37;8.68;;;;;;;5.00;56.66;99242.81;4321438;33;20539;-84
2022/12/29 01:36:07;;;;;;;19.25;8.77;;;;;;;4.99;56.64;99241.09;4321611;33;20100;-84
2022/12/29 01:38:34;;;;;;;23.58;9.48;;;;;;;4.79;57.25;99244.22;4334833;33;20452;-85
2022/12/29 01:40:59;;;;;;;20.95;9.20;;;;;;;4.76;57.40;99252.09;4335178;33;20353;-84
2022/12/29 01:43:47;;;;;;;23.15;8.77;;;;;;;4.92;57.02;99250.84;4321476;33;20164;-84
2022/12/29 01:46:38;;;;;;;19.90;9.20;;;;;;;4.99;56.85;99248.94;4334911;33;20095;-84
2022/12/29 01:49:19;;;;;;;19.58;8.43;;;;;;;4.94;56.96;99237.75;4321098;33;20088;-84
2022/12/29 01:51:55;;;;;;;19.60;9.50;;;;;;;4.63;57.35;99243.69;4321873;33;20107;-83
2022/12/29 01:54:24;;;;;;;20.55;8.77;;;;;;;4.79;57.19;99241.59;4321332;33;20138;-85
2022/12/29 01:56:51;;;;;;;20.95;8.90;;;;;;;4.96;56.89;99233.34;4334879;33;20099;-84
2022/12/29 01:59:19;;;;;;;24.15;9.75;;;;;;;5.03;56.51;99228.84;4333545;33;20084;-84
2022/12/29 02:01:44;;;;;;;20.23;8.85;;;;;;;5.07;56.43;99233.09;4334702;33;20100;-84
2022/12/29 02:04:11;;;;;;;19.73;8.93;;;;;;;5.02;56.43;99229.72;4334528;33;20103;-84
2022/12/29 02:06:45;;;;;;;19.12;9.23;;;;;;;5.05;56.48;99229.66;4320988;33;20088;-84
2022/12/29 02:09:10;;;;;;;21.42;8.93;;;;;;;5.11;56.44;99227.72;4333591;33;20083;-84
2022/12/29 02:11:36;;;;;;;17.40;8.40;;;;;;;5.16;56.34;99216.31;4334476;33;20171;-84
2022/12/29 02:14:04;;;;;;;20.23;9.23;;;;;;;5.18;56.27;99210.16;4333743;33;20112;-84
2022/12/29 02:16:45;;;;;;;21.70;8.95;;;;;;;5.20;56.15;99210.97;4334888;33;20087;-84
2022/12/29 02:19:32;;;;;;;20.70;8.93;;;;;;;5.25;56.12;99216.06;4334580;33;20116;-85
2022/12/29 02:22:18;;;;;;;22.83;8.98;;;;;;;5.24;55.86;99211.78;4323874;33;20123;-85
2022/12/29 02:25:21;;;;;;;20.85;8.95;;;;;;;5.21;55.95;99198.78;4335016;33;20108;-85
2022/12/29 02:28:09;;;;;;;20.48;8.80;;;;;;;5.22;56.00;99198.75;4322964;33;20590;-85
2022/12/29 02:30:40;;;;;;;20.08;8.93;;;;;;;5.06;56.05;99205.25;4333188;33;20083;-84
2022/12/29 02:33:11;;;;;;;20.90;9.55;;;;;;;4.96;56.26;99207.22;4333381;33;20096;-85
2022/12/29 02:35:51;;;;;;;20.52;9.45;;;;;;;4.84;56.59;99216.22;4320928;33;20133;-84
2022/12/29 02:38:31;;;;;;;21.42;8.70;;;;;;;4.82;56.85;99206.72;4334546;33;20194;-85
2022/12/29 02:41:08;;;;;;;19.70;9.10;;;;;;;4.97;56.46;99205.50;4333150;33;20088;-85
2022/12/29 02:44:05;;;;;;;19.02;10.00;;;;;;;4.97;56.46;99198.50;4333150;33;20104;-85
2022/12/29 02:46:52;;;;;;;19.85;8.73;;;;;;;4.98;56.52;99207.19;4332000;33;20554;-85
2022/12/29 02:49:40;;;;;;;21.15;9.15;;;;;;;4.96;56.38;99202.00;4334639;33;20096;-85
2022/12/29 02:52:27;;;;;;;21.90;10.25;;;;;;;4.96;56.38;99196.78;4334152;33;20084;-85
2022/12/29 02:54:55;;;;;;;21.85;9.70;;;;;;;4.97;56.41;99201.13;4320615;33;20096;-85
2022/12/29 02:57:21;;;;;;;20.23;9.52;;;;;;;4.95;56.52;99202.91;4334415;33;20092;-85
2022/12/29 02:59:49;;;;;;;20.70;9.88;;;;;;;4.90;56.53;99200.41;4335859;33;20207;-85
2022/12/29 03:02:36;;;;;;;20.42;9.52;;;;;;;4.92;56.47;99198.66;4336267;33;20146;-85
2022/12/29 03:05:25;;;;;;;23.95;9.90;;;;;;;4.93;56.45;99197.72;4349836;33;20104;-85
2022/12/29 03:08:14;;;;;;;;;;;;;;;4.92;56.57;99190.81;4336955;33;20455;-85
2022/12/29 03:10:54;;;;;;;23.12;9.57;;;;;;;4.99;56.42;99190.66;4332796;33;20026;-85
2022/12/29 03:16:34;;;;;;;20.90;9.15;;;;;;;4.95;56.52;99194.25;4321817;33;20490;-85
2022/12/29 03:19:21;;;;;;;22.42;10.13;;;;;;;4.89;56.56;99190.88;4332696;33;20127;-86
2022/12/29 03:24:38;;;;;;;20.62;9.45;;;;;;;4.87;56.83;99187.44;4322231;33;20152;-86
2022/12/29 03:27:06;;;;;;;23.60;10.10;;;;;;;4.93;56.71;99186.44;4320413;33;20171;-85
2022/12/29 03:29:35;;;;;;;23.95;9.73;;;;;;;4.97;56.73;99189.84;4332599;33;20099;-86
2022/12/29 03:32:02;;;;;;;22.40;9.75;;;;;;;5.00;56.68;99176.69;4320467;33;20096;-86
2022/12/29 03:34:28;;;;;;;24.73;10.63;;;;;;;5.00;56.68;99169.69;4320414;33;20106;-86
2022/12/29 03:37:01;;;;;;;22.50;10.43;;;;;;;5.02;56.53;99170.53;4320277;33;20119;-86
2022/12/29 03:39:26;;;;;;;24.30;10.63;;;;;;;4.99;56.59;99168.00;4332639;33;20104;-85
2022/12/29 03:42:04;;;;;;;23.35;9.95;;;;;;;5.01;56.50;99158.38;4320071;33;20393;-85
2022/12/29 03:44:36;;;;;;;21.52;9.45;;;;;;;5.06;56.41;99160.84;4332630;33;20147;-85
2022/12/29 03:47:02;;;;;;;23.90;10.32;;;;;;;5.06;56.37;99166.06;4336152;33;20107;-85
2022/12/29 03:49:27;;;;;;;21.25;9.82;;;;;;;5.03;56.44;99161.81;4335918;33;20505;-85
2022/12/29 03:51:53;;;;;;;22.55;10.50;;;;;;;5.02;56.30;99160.09;4349427;33;20087;-85
2022/12/29 03:54:18;;;;;;;21.23;10.15;;;;;;;4.98;56.33;99168.03;4349213;33;20429;-86
2022/12/29 03:56:44;;;;;;;20.15;10.02;;;;;;;4.98;56.21;99174.09;4348105;33;20392;-86
2022/12/29 03:59:09;;;;;;;23.27;10.73;;;;;;;5.00;56.32;99171.47;4349069;33;20119;-86
2022/12/29 04:01:35;;;;;;;20.65;9.50;;;;;;;5.00;56.32;99163.63;4335710;33;20464;-86
2022/12/29 04:04:00;;;;;;;22.23;10.27;;;;;;;5.04;56.29;99160.03;4349118;33;20099;-86
2022/12/29 04:06:25;;;;;;;23.02;10.07;;;;;;;5.02;56.22;99170.53;4349084;33;20092;-86
2022/12/29 04:08:51;;;;;;;24.80;11.12;;;;;;;5.02;56.20;99172.28;4349026;33;20095;-86
2022/12/29 04:11:16;;;;;;;23.50;10.30;;;;;;;4.99;56.23;99170.63;4349089;33;20126;-85
2022/12/29 04:13:41;;;;;;;22.80;10.20;;;;;;;4.97;56.36;99166.34;4348917;33;20103;-85
2022/12/29 04:16:07;;;;;;;23.50;11.07;;;;;;;5.04;56.26;99167.88;4349154;33;20122;-85
2022/12/29 04:18:33;;;;;;;20.60;10.57;;;;;;;5.03;56.24;99169.63;4348882;33;20096;-85
2022/12/29 04:21:02;;;;;;;21.17;9.45;;;;;;;5.04;56.15;99157.44;4347824;33;20143;-85
2022/12/29 04:23:28;;;;;;;21.10;10.00;;;;;;;5.00;56.20;99163.63;4348925;33;20091;-85
2022/12/29 04:25:54;;;;;;;22.98;11.25;;;;;;;5.03;56.17;99166.16;4348724;33;20142;-85
2022/12/29 04:28:19;;;;;;;22.65;10.30;;;;;;;5.01;56.17;99160.13;4349121;33;20122;-85
2022/12/29 04:30:45;;;;;;;24.40;10.93;;;;;;;5.00;56.19;99163.63;4350549;33;20123;-85
2022/12/29 04:33:11;;;;;;;23.75;10.80;;;;;;;5.02;56.10;99169.66;4337588;33;20122;-85
2022/12/29 04:35:36;;;;;;;24.15;10.40;;;;;;;5.03;56.09;99179.22;4350929;33;20094;-85
2022/12/29 04:38:02;;;;;;;24.40;11.40;;;;;;;5.07;56.03;99162.56;4350863;33;20156;-85
2022/12/29 04:40:27;;;;;;;23.45;10.68;;;;;;;5.04;56.07;99167.88;4350964;33;20122;-86
2022/12/29 04:42:53;;;;;;;25.45;11.05;;;;;;;5.04;56.10;99167.88;4350934;33;20087;-86
2022/12/29 04:45:18;;;;;;;22.77;10.10;;;;;;;5.04;56.23;99157.44;4350909;33;20103;-85
2022/12/29 04:47:43;;;;;;;25.55;10.68;;;;;;;5.04;56.36;99160.03;4350838;33;20171;-85
2022/12/29 04:50:09;;;;;;;22.45;11.05;;;;;;;5.04;56.44;99155.69;4350736;33;20428;-86
2022/12/29 04:52:35;;;;;;;23.90;10.80;;;;;;;5.08;56.42;99159.94;4337393;33;20173;-86
2022/12/29 04:55:00;;;;;;;22.05;10.90;;;;;;;5.08;56.31;99159.94;4349707;33;20107;-86
2022/12/29 04:57:26;;;;;;;23.87;11.00;;;;;;;5.13;56.32;99162.41;4350740;33;20091;-86
2022/12/29 04:59:51;;;;;;;22.48;10.52;;;;;;;5.27;55.95;99172.50;4337287;33;20087;-86
2022/12/29 05:02:17;;;;;;;25.17;12.23;;;;;;;5.24;56.01;99170.81;4350755;33;20433;-86
2022/12/29 05:04:43;;;;;;;23.12;10.68;;;;;;;5.27;55.91;99173.38;4337193;33;20111;-86
2022/12/29 05:07:09;;;;;;;23.25;10.65;;;;;;;5.30;55.91;99172.41;4337184;33;20099;-86
2022/12/29 05:09:34;;;;;;;25.25;11.55;;;;;;;5.34;55.81;99167.97;4350733;33;20436;-86
2022/12/29 05:12:00;;;;;;;22.33;10.13;;;;;;;5.36;55.64;99166.19;4350695;33;20138;-85
2022/12/29 05:14:25;;;;;;;24.05;11.18;;;;;;;5.37;55.61;99171.38;4350417;33;20170;-85
2022/12/29 05:16:51;;;;;;;24.12;11.57;;;;;;;5.40;55.63;99170.41;4349147;33;20199;-85
2022/12/29 05:19:16;;;;;;;25.73;11.45;;;;;;;5.10;56.03;99163.34;4350419;33;20079;-86
2022/12/29 05:21:42;;;;;;;24.33;11.65;;;;;;;5.27;55.74;99164.66;4349139;33;20487;-86
2022/12/29 05:24:08;;;;;;;23.15;11.68;;;;;;;5.35;55.46;99167.06;4350326;33;20099;-85
2022/12/29 05:26:33;;;;;;;25.80;11.98;;;;;;;5.31;55.40;99161.94;4337331;33;20099;-86
2022/12/29 05:28:59;;;;;;;23.20;11.45;;;;;;;5.29;55.42;99165.47;4350614;33;20088;-86
2022/12/29 05:31:25;;;;;;;22.90;10.82;;;;;;;5.29;55.45;99162.84;4350677;33;20112;-86
2022/12/29 05:33:50;;;;;;;24.83;11.57;;;;;;;5.25;55.59;99166.44;4349382;33;20365;-86
2022/12/29 05:36:16;;;;;;;23.73;11.68;;;;;;;5.25;55.55;99163.84;4350265;33;20110;-86
2022/12/29 05:38:41;;;;;;;23.80;10.75;;;;;;;5.28;55.41;99163.78;4350015;33;20091;-86
2022/12/29 05:41:07;;;;;;;23.73;12.10;;;;;;;5.27;55.49;99165.53;4348997;33;20119;-86
2022/12/29 05:43:35;;;;;;;26.98;12.05;;;;;;;5.27;55.31;99168.16;4349072;33;20166;-86
2022/12/29 05:46:00;;;;;;;23.02;11.63;;;;;;;5.24;55.37;99165.59;4350314;33;20099;-86
2022/12/29 05:48:26;;;;;;;22.15;10.95;;;;;;;5.21;55.32;99157.00;4349029;33;20097;-87
2022/12/29 05:50:51;;;;;;;23.33;11.93;;;;;;;5.17;55.43;99150.13;4350041;33;20118;-87
2022/12/29 05:53:17;;;;;;;24.35;12.27;;;;;;;5.17;55.45;99152.75;4350041;33;20138;-87
2022/12/29 05:55:44;;;;;;;25.95;12.48;;;;;;;5.18;55.46;99144.03;4350267;33;20102;-87
2022/12/29 05:58:09;;;;;;;23.38;11.63;;;;;;;5.16;55.51;99140.56;4336630;33;20174;-87
2022/12/29 06:00:34;;;;;;;24.45;12.10;;;;;;;5.19;55.49;99143.12;4348906;33;20079;-87
2022/12/29 06:03:00;;;;;;;26.85;12.68;;;;;;;5.21;55.42;99138.69;4349999;33;20115;-87
2022/12/29 06:05:25;;;;;;;27.55;12.27;;;;;;;5.17;55.33;99139.69;4336635;33;20099;-87
2022/12/29 06:07:51;;;;;;;27.27;12.20;;;;;;;5.16;55.26;99140.56;4348857;33;20091;-87
2022/12/29 06:10:17;;;;;;;24.52;11.68;;;;;;;5.09;55.29;99151.19;4350140;33;20084;-87
2022/12/29 06:12:42;;;;;;;25.40;13.10;;;;;;;5.11;55.28;99153.75;4336722;33;20107;-87
2022/12/29 06:15:08;;;;;;;26.23;11.88;;;;;;;5.09;55.37;99150.34;4348814;33;20103;-87
2022/12/29 06:17:33;;;;;;;27.45;12.37;;;;;;;5.00;55.54;99147.97;4349961;33;20087;-87
2022/12/29 06:19:59;;;;;;;25.15;12.10;;;;;;;5.01;55.48;99147.94;4350043;33;20076;-87
2022/12/29 06:22:24;;;;;;;27.83;11.73;;;;;;;5.05;55.41;99149.56;4350018;33;20118;-87
2022/12/29 06:24:50;;;;;;;27.08;13.25;;;;;;;5.08;55.31;99146.00;4349766;33;20094;-85
2022/12/29 06:27:15;;;;;;;25.08;11.93;;;;;;;5.03;55.39;99145.28;4349970;33;20080;-84
2022/12/29 06:29:41;;;;;;;26.08;12.93;;;;;;;5.05;55.29;99148.72;4350015;33;20118;-84
2022/12/29 06:32:07;;;;;;;22.67;12.00;;;;;;;5.01;55.35;99152.31;4336817;33;20182;-84
2022/12/29 06:34:32;;;;;;;25.75;12.32;;;;;;;5.03;55.40;99151.34;4350263;33;20577;-84
2022/12/29 06:36:58;;;;;;;25.15;12.90;;;;;;;4.98;55.47;99152.38;4336600;33;20091;-84
2022/12/29 06:39:23;;;;;;;25.90;12.68;;;;;;;5.01;55.37;99147.09;4348798;33;20606;-84
2022/12/29 06:41:52;;;;;;;26.27;12.35;;;;;;;5.03;55.35;99155.72;4350169;33;20126;-84
2022/12/29 06:44:17;;;;;;;25.55;12.50;;;;;;;5.03;55.43;99150.50;4349091;33;20110;-84
2022/12/29 06:46:42;;;;;;;28.35;12.37;;;;;;;5.07;55.12;99155.59;4350108;33;20367;-84
2022/12/29 06:49:08;;;;;;;26.08;12.15;;;;;;;5.06;55.18;99148.69;4350056;33;20088;-84
2022/12/29 06:51:33;;;;;;;30.37;13.02;;;;;;;5.07;55.44;99157.34;4349127;33;20083;-85
2022/12/29 06:53:58;;;;;;;27.00;12.85;;;;;;;4.82;55.95;99162.34;4349720;33;20083;-86
2022/12/29 06:56:24;;;;;;;29.90;13.65;;;;;;;5.02;55.61;99154.87;4336166;33;20091;-86
2022/12/29 06:58:49;;;;;;;25.37;12.37;;;;;;;5.11;55.41;99159.84;4349891;33;20117;-86
2022/12/29 07:01:15;;;;;;;27.42;13.27;;;;;;;5.03;55.43;99166.16;4336558;33;20115;-86
2022/12/29 07:03:42;;;;;;;25.70;12.88;;;;;;;4.96;55.75;99172.44;4349903;33;20091;-85
2022/12/29 07:06:07;;;;;;;28.52;13.98;;;;;;;5.02;55.54;99172.28;4336689;33;20377;-86
2022/12/29 07:08:33;;;;;;;26.65;12.93;;;;;;;5.03;55.43;99176.63;4349967;33;20114;-85
2022/12/29 07:10:58;;;;;;;29.33;13.07;;;;;;;5.05;55.66;99164.38;4349917;33;20115;-86
2022/12/29 07:13:24;;;;;;;28.33;13.32;;;;;;;5.14;55.65;99169.38;4336027;33;20133;-87
2022/12/29 07:15:49;;;;;;;27.75;13.07;;;;;;;5.31;55.37;99161.94;4349637;33;20121;-85
2022/12/29 07:18:14;;;;;;;28.30;12.82;;;;;;;5.36;55.35;99167.03;4349559;33;20142;-85
2022/12/29 07:20:40;;;;;;;28.55;12.88;;;;;;;5.29;55.37;99168.97;4349540;33;20107;-85
2022/12/29 07:23:05;;;;;;;26.52;12.98;;;;;;;5.43;55.12;99165.97;4349451;33;20140;-85
2022/12/29 07:25:31;;;;;;;28.87;13.00;;;;;;;5.60;55.04;99164.63;4349468;33;20095;-84
2022/12/29 07:27:56;;;;;;;24.15;12.68;;;;;;;5.73;54.36;99163.37;4349576;33;20248;-87
2022/12/29 07:30:21;;;;;;;28.95;13.75;;;;;;;5.78;54.11;99166.72;4349501;33;20364;-83
2022/12/29 07:32:47;;;;;;;27.20;13.50;;;;;;;5.86;53.92;99171.72;4349487;33;20143;-84
2022/12/29 07:35:12;;;;;;;26.75;13.50;;;;;;;5.89;53.81;99177.72;4349528;33;20091;-84
2022/12/29 07:37:38;;;;;;;30.10;14.07;;;;;;;5.94;53.47;99168.88;4349579;33;20129;-84
2022/12/29 07:40:04;;;;;;;30.02;14.07;;;;;;;6.00;53.53;99166.12;4349597;33;20103;-87
2022/12/29 07:42:30;;;;;;;29.92;13.98;;;;;;;6.01;53.40;99165.22;4349671;33;20099;-84
2022/12/29 07:44:56;;;;;;;32.60;14.73;;;;;;;6.02;53.47;99170.37;4349746;33;20217;-81
2022/12/29 07:47:21;;;;;;;29.77;13.95;;;;;;;5.21;54.14;99168.28;4348365;33;20092;-83
2022/12/29 07:49:47;;;;;;;32.17;14.55;;;;;;;5.78;53.31;99177.19;4349661;33;20127;-82
2022/12/29 07:52:12;;;;;;;28.67;14.10;;;;;;;5.82;53.13;99188.41;4335961;33;20104;-81
2022/12/29 07:54:38;;;;;;;30.12;14.13;;;;;;;5.88;53.13;99180.38;4334792;33;20122;-80
2022/12/29 07:57:04;;;;;;;27.98;14.13;;;;;;;5.93;53.08;99181.12;4334825;33;20106;-82
2022/12/29 07:59:30;;;;;;;28.05;14.80;;;;;;;6.10;52.47;99185.84;4321492;33;20100;-83
2022/12/29 08:01:55;;;;;;;29.77;14.55;;;;;;;5.76;53.10;99185.97;4334655;33;20142;-81
2022/12/29 08:04:21;;;;;;;30.42;14.32;;;;;;;5.87;53.42;99186.50;4334675;33;20087;-82
2022/12/29 08:06:46;;;;;;;31.73;15.13;;;;;;;5.96;53.35;99191.50;4308847;33;20369;-84
2022/12/29 08:09:11;;;;;;;32.47;14.57;;;;;;;5.82;53.44;99181.41;4334355;33;20100;-83
2022/12/29 08:11:37;;;;;;;31.48;14.82;;;;;;;5.91;53.08;99178.53;4334074;33;20131;-84
2022/12/29 08:14:03;;;;;;;31.02;14.65;;;;;;;5.98;52.88;99181.84;4334207;33;20122;-84
2022/12/29 08:16:28;;;;;;;33.28;14.73;;;;;;;5.81;52.97;99178.84;4334237;33;20440;-84
2022/12/29 08:18:54;;;;;;;29.85;14.35;;;;;;;6.00;52.95;99184.44;4334092;33;20096;-83
2022/12/29 08:21:19;;;;;;;27.83;14.82;;;;;;;6.09;52.44;99168.47;4334281;33;20114;-83
2022/12/29 08:23:45;;;;;;;30.45;14.10;;;;;;;6.20;52.54;99178.59;4334109;33;20102;-83
2022/12/29 08:26:11;;;;;;;31.40;15.27;;;;;;;5.98;52.84;99174.00;4333824;33;20080;-83
2022/12/29 08:28:36;;;;;;;27.90;14.35;;;;;;;5.92;52.75;99176.78;4319734;33;20475;-83
2022/12/29 08:31:02;;;;;;;32.40;15.55;;;;;;;6.07;52.58;99165.88;4332812;33;20384;-83
2022/12/29 08:33:28;;;;;;;31.23;15.05;;;;;;;6.01;52.62;99165.22;4319017;33;20095;-83
2022/12/29 08:36:05;;;;;;;31.33;15.20;;;;;;;6.16;52.71;99159.53;4333957;33;20143;-84
2022/12/29 08:38:31;;;;;;;28.02;14.57;;;;;;;6.21;52.55;99156.78;4332670;33;20104;-84
2022/12/29 08:40:58;;;;;;;32.03;15.57;;;;;;;6.28;52.38;99158.31;4334027;33;20088;-83
2022/12/29 08:43:23;;;;;;;32.60;15.30;;;;;;;6.35;52.09;99156.34;4332205;33;20087;-83
2022/12/29 08:45:49;;;;;;;30.02;15.88;;;;;;;5.90;52.95;99161.13;4333826;33;20451;-83
2022/12/29 08:48:18;;;;;;;28.30;15.05;;;;;;;6.19;52.51;99163.81;4333812;33;20122;-83
2022/12/29 08:50:44;;;;;;;33.97;15.55;;;;;;;6.27;52.45;99154.81;4333802;33;20122;-83
2022/12/29 08:53:09;;;;;;;34.20;15.43;;;;;;;6.34;52.39;99158.09;4333758;33;20114;-83
2022/12/29 08:55:35;;;;;;;29.83;15.07;;;;;;;6.39;52.01;99152.72;4332512;33;20421;-83
2022/12/29 08:58:00;;;;;;;30.35;15.35;;;;;;;6.45;52.00;99152.50;4333690;33;20366;-82
2022/12/29 09:00:26;;;;;;;33.17;14.83;;;;;;;6.34;52.15;99155.47;4330675;33;96822;-82
2022/12/29 09:02:51;;;;;;;35.28;15.80;;;;;;;6.15;52.34;99149.97;4333598;33;20076;-83
2022/12/29 09:05:17;;;;;;;31.33;15.35;;;;;;;6.29;51.99;99154.75;4333644;33;20457;-83
2022/12/29 09:07:42;;;;;;;31.65;16.35;;;;;;;6.36;51.96;99152.81;4333506;33;20226;-83
2022/12/29 09:10:08;;;;;;;33.15;15.48;;;;;;;6.41;52.11;99143.94;4333604;33;20126;-84
2022/12/29 09:12:33;;;;;;;30.23;15.02;;;;;;;6.55;51.84;99139.97;4333667;33;20444;-84
2022/12/29 09:14:59;;;;;;;30.67;15.05;;;;;;;6.62;51.52;99147.59;4321185;33;20106;-83
2022/12/29 09:20:08;;;;;;;30.95;15.60;;;;;;;6.82;51.10;99127.78;4335743;33;20171;-82
2022/12/29 09:22:34;;;;;;;30.52;14.43;;;;;;;6.80;51.00;99129.56;4322376;33;20091;-82
2022/12/29 09:25:00;;;;;;;33.15;15.80;;;;;;;6.68;51.17;99134.31;4322174;33;20088;-83
2022/12/29 09:27:25;;;;;;;29.75;15.60;;;;;;;6.63;50.81;99130.13;4335641;33;20106;-83
2022/12/29 09:29:51;;;;;;;32.20;14.95;;;;;;;6.55;50.75;99114.69;4336621;33;20079;-83
2022/12/29 09:32:16;;;;;;;30.58;15.23;;;;;;;6.58;50.95;99121.56;4334810;33;20117;-82
2022/12/29 09:34:41;;;;;;;29.70;15.50;;;;;;;6.56;51.07;99112.91;4334993;33;20080;-82
2022/12/29 09:37:07;;;;;;;29.35;15.10;;;;;;;6.60;51.12;99109.28;4321703;33;20155;-81
2022/12/29 09:39:32;;;;;;;33.67;16.60;;;;;;;6.36;51.29;99118.81;4334811;33;20092;-84
2022/12/29 09:41:58;;;;;;;30.83;15.23;;;;;;;6.48;51.42;99110.56;4334858;33;20092;-83
2022/12/29 09:44:31;;;;;;;35.72;16.37;;;;;;;6.55;51.29;99111.19;4334437;33;20377;-87
2022/12/29 09:46:58;;;;;;;32.63;15.75;;;;;;;6.60;51.20;99104.06;4320248;33;20131;-85
2022/12/29 09:49:43;;;;;;;33.80;16.10;;;;;;;6.62;51.29;99105.69;4333755;33;20126;-85
2022/12/29 09:52:19;;;;;;;34.08;16.48;;;;;;;6.63;51.52;99104.81;4322135;33;20119;-84
2022/12/29 09:55:04;;;;;;;38.97;17.48;;;;;;;6.65;51.47;99104.75;4322352;33;20076;-88
2022/12/29 09:57:37;;;;;;;33.20;16.60;;;;;;;6.68;51.43;99100.28;4322227;33;20112;-81
2022/12/29 10:00:11;;;;;;;40.28;18.17;;;;;;;6.66;51.32;99104.72;4335708;33;20151;-86
2022/12/29 10:02:43;;;;;;;36.53;18.02;;;;;;;6.71;51.18;99095.84;4321978;33;20460;-81
2022/12/29 10:05:23;;;;;;;35.28;18.17;;;;;;;6.63;51.22;99093.50;4322045;33;20511;-83
2022/12/29 10:08:01;;;;;;;35.63;17.58;;;;;;;6.60;51.60;99107.50;4334607;33;20104;-78
2022/12/29 10:10:52;;;;;;;37.83;18.12;;;;;;;6.61;51.61;99093.53;4333964;33;20459;-82
2022/12/29 10:13:39;;;;;;;38.33;19.00;;;;;;;6.65;51.71;99082.06;4333325;33;20099;-83
2022/12/29 10:16:17;;;;;;;35.70;17.00;;;;;;;6.71;51.50;99075.75;4335371;33;20095;-82
2022/12/29 10:18:48;;;;;;;35.92;17.98;;;;;;;6.71;51.42;99073.13;4309777;33;20163;-83
2022/12/29 10:21:35;;;;;;;37.33;18.40;;;;;;;6.67;51.62;99075.00;4335307;33;20162;-81
2022/12/29 10:24:04;;;;;;;40.58;18.17;;;;;;;6.73;51.73;99073.09;4334666;33;20114;-88
2022/12/29 10:26:33;;;;;;;34.95;18.73;;;;;;;6.72;51.52;99074.81;4333407;33;20084;-87
2022/12/29 10:29:11;;;;;;;35.13;19.00;;;;;;;6.73;51.23;99073.09;4321416;33;20138;-87
2022/12/29 10:31:40;;;;;;;33.60;18.33;;;;;;;6.68;51.45;99073.22;4333160;33;20096;-87
2022/12/29 10:34:34;;;;;;;35.88;18.45;;;;;;;6.66;51.51;99070.69;4334712;33;20114;-87
2022/12/29 10:37:37;;;;;;;35.30;18.60;;;;;;;6.49;51.83;99073.00;4331622;33;20159;-87
2022/12/29 10:40:14;;;;;;;35.63;18.00;;;;;;;6.56;52.03;99068.41;4319473;33;20112;-87
2022/12/29 10:42:43;;;;;;;39.72;18.10;;;;;;;6.63;51.97;99076.00;4331675;33;20468;-88
2022/12/29 10:45:14;;;;;;;35.60;18.62;;;;;;;6.69;51.91;99075.81;4319371;33;20123;-84
2022/12/29 10:47:50;;;;;;;36.15;19.17;;;;;;;6.69;51.75;99070.56;4320524;33;20446;-84
2022/12/29 10:50:16;;;;;;;37.50;19.65;;;;;;;6.71;51.80;99064.44;4319394;33;20532;-84
2022/12/29 10:52:41;;;;;;;36.03;18.55;;;;;;;6.76;51.68;99070.34;4331420;33;20116;-84
2022/12/29 10:55:16;;;;;;;35.53;18.73;;;;;;;6.80;51.65;99064.97;4331341;33;20603;-83
2022/12/29 10:57:44;;;;;;;36.00;18.52;;;;;;;6.84;51.39;99063.94;4331365;33;20167;-84
2022/12/29 11:00:20;;;;;;;39.95;19.37;;;;;;;6.56;52.04;99060.56;4320254;33;20122;-84
2022/12/29 11:03:17;;;;;;;37.65;18.67;;;;;;;6.72;51.77;99061.75;4320431;33;20100;-84
2022/12/29 11:05:49;;;;;;;37.60;19.00;;;;;;;6.81;51.56;99057.97;4318137;33;20091;-84
2022/12/29 11:08:18;;;;;;;35.75;18.85;;;;;;;6.26;52.84;99052.84;4318214;33;20653;-84
2022/12/29 11:10:46;;;;;;;38.25;18.87;;;;;;;6.63;52.07;99052.44;4305892;33;20508;-83
2022/12/29 11:13:20;;;;;;;36.92;18.80;;;;;;;6.64;52.12;99048.06;4305767;33;20452;-84
2022/12/29 11:15:48;;;;;;;35.22;18.83;;;;;;;6.64;52.00;99055.91;4306017;33;20100;-84
2022/12/29 11:18:24;;;;;;;;;;;;;;;6.66;52.10;99049.75;4306024;33;20175;-83
2022/12/29 11:20:52;;;;;;;33.47;17.27;;;;;;;6.45;52.44;99050.44;4318261;33;20036;-84
2022/12/29 11:23:27;;;;;;;36.10;18.87;;;;;;;6.62;52.47;99044.66;4318005;33;20537;-84
2022/12/29 11:26:11;;;;;;;37.35;17.95;;;;;;;6.71;52.35;99043.50;4317892;33;20147;-84
2022/12/29 11:28:42;;;;;;;39.85;19.52;;;;;;;6.82;52.20;99039.59;4317962;33;20143;-84
2022/12/29 11:31:08;;;;;;;35.97;18.40;;;;;;;6.85;52.20;99044.69;4305789;33;20717;-84
2022/12/29 11:33:38;;;;;;;35.67;19.17;;;;;;;6.60;52.66;99041.22;4317998;33;20182;-83
2022/12/29 11:36:09;;;;;;;35.00;18.12;;;;;;;6.67;52.49;99043.59;4305783;33;20088;-84
2022/12/29 11:38:38;;;;;;;38.28;19.30;;;;;;;6.78;52.52;99030.12;4317372;33;20152;-84
2022/12/29 11:41:04;;;;;;;35.65;19.40;;;;;;;6.82;52.49;99025.66;4317851;33;20458;-83
2022/12/29 11:43:33;;;;;;;39.70;18.83;;;;;;;6.89;52.44;99024.50;4319871;33;20118;-83
2022/12/29 11:45:59;;;;;;;36.88;19.37;;;;;;;6.93;52.43;99017.37;4320048;33;20096;-84
2022/12/29 11:48:32;;;;;;;34.60;19.12;;;;;;;6.97;52.25;99018.97;4319165;33;20291;-84
2022/12/29 11:51:01;;;;;;;34.83;19.35;;;;;;;7.03;52.26;99018.75;4319012;33;20151;-84
2022/12/29 11:53:41;;;;;;;37.53;20.17;;;;;;;7.04;52.23;99023.94;4318805;33;20130;-83
2022/12/29 11:56:40;;;;;;;35.38;19.17;;;;;;;7.07;52.17;99025.63;4319969;33;20449;-84
2022/12/29 11:59:29;;;;;;;37.87;20.93;;;;;;;6.62;52.80;99034.19;4319356;33;20433;-84
2022/12/29 12:01:56;;;;;;;38.95;20.00;;;;;;;6.73;52.92;99026.81;4319895;33;20107;-84
2022/12/29 12:04:25;;;;;;;38.30;18.23;;;;;;;6.88;52.56;99015.78;4318697;33;20104;-84
2022/12/29 12:07:02;;;;;;;35.38;19.02;;;;;;;6.93;52.52;99031.31;4318625;33;20467;-84
2022/12/29 12:09:58;;;;;;;36.53;20.02;;;;;;;7.02;52.31;99025.75;4319727;33;20151;-84
2022/12/29 12:12:36;;;;;;;35.30;19.40;;;;;;;7.06;52.40;99027.34;4319430;33;20501;-84
2022/12/29 12:15:03;;;;;;;38.58;19.50;;;;;;;7.12;52.31;99018.41;4319843;33;20111;-84